Time;durP1;ratioP1;P1;durP2;ratioP2;P2;SDS_P1;SDS_P2;PMS_P1;PMS_P2;Temp;Humidity;BMP_temperature;BMP_pressure;BME280_temperature;BME280_humidity;BME280_pressure;Samples;Min_cycle;Max_cycle;Signal;HPM_P1;HPM_P2
2022/04/05 00:01:27;;;;;;;6.20;4.90;;;;;;;-2.17;68.44;97984.52;105028;1271;71859;-26
2022/04/05 00:03:57;;;;;;;6.60;4.80;;;;;;;-2.25;68.73;97978.42;105152;1271;61282;-26
2022/04/05 00:06:26;;;;;;;9.30;5.30;;;;;;;-2.35;69.07;97975.80;105108;1271;61941;-26
2022/04/05 00:08:55;;;;;;;4.70;3.40;;;;;;;-2.36;69.47;97972.77;104934;1271;74962;-26
2022/04/05 00:11:26;;;;;;;4.30;3.50;;;;;;;-1.79;68.37;97969.30;104903;1271;76085;-28
2022/04/05 00:13:55;;;;;;;10.40;5.70;;;;;;;-1.55;67.29;97971.05;104808;1274;74184;-29
2022/04/05 00:16:23;;;;;;;6.20;3.80;;;;;;;-1.63;67.23;97962.91;104936;1271;61298;-29
2022/04/05 00:18:53;;;;;;;5.40;3.60;;;;;;;-1.81;67.51;97956.61;104890;1271;61086;-27
2022/04/05 00:21:22;;;;;;;9.40;4.60;;;;;;;-1.99;67.82;97951.68;104835;1271;75922;-27
2022/04/05 00:23:51;;;;;;;11.90;5.30;;;;;;;-2.27;68.85;97947.21;104824;1274;75374;-27
2022/04/05 00:26:22;;;;;;;7.70;5.80;;;;;;;-2.34;69.02;97943.45;105045;1271;74365;-27
2022/04/05 00:28:51;;;;;;;15.70;5.30;;;;;;;-2.42;69.16;97936.52;104831;1271;61090;-27
2022/04/05 00:31:20;;;;;;;11.80;6.10;;;;;;;-2.38;69.36;97932.11;104886;1271;62017;-27
2022/04/05 00:33:51;;;;;;;8.70;6.00;;;;;;;-1.85;67.97;97929.42;104946;1271;75517;-27
2022/04/05 00:36:19;;;;;;;3.80;3.10;;;;;;;-1.60;66.73;97925.02;104961;1271;76594;-27
2022/04/05 00:38:48;;;;;;;10.50;6.90;;;;;;;-1.65;66.50;97921.64;104775;1271;72302;-28
2022/04/05 00:41:17;;;;;;;9.70;6.00;;;;;;;-1.84;67.04;97914.25;104953;1271;61583;-28
2022/04/05 00:43:46;;;;;;;9.20;6.50;;;;;;;-2.03;67.65;97905.80;104821;1271;62126;-28
2022/04/05 00:46:16;;;;;;;7.10;5.70;;;;;;;-2.17;68.11;97904.42;104994;1271;74587;-27
2022/04/05 00:48:53;;;;;;;11.00;7.60;;;;;;;-2.31;68.58;97901.19;104847;1274;76063;-28
2022/04/05 00:51:23;;;;;;;8.30;3.30;;;;;;;-2.46;69.31;97901.52;104828;1271;73446;-27
2022/04/05 00:53:57;;;;;;;13.20;7.10;;;;;;;-2.18;69.17;97898.00;104918;1271;61620;-26
2022/04/05 00:56:27;;;;;;;10.30;5.90;;;;;;;-1.58;67.23;97901.04;104768;1271;61144;-29
2022/04/05 00:58:55;;;;;;;11.70;6.50;;;;;;;-1.41;66.37;97891.85;104815;1274;75543;-27
2022/04/05 01:01:27;;;;;;;7.90;4.60;;;;;;;-1.48;66.19;97884.89;104856;1271;75950;-29
2022/04/05 01:03:56;;;;;;;12.50;6.60;;;;;;;-1.69;66.56;97881.65;104755;1271;74481;-27
2022/04/05 01:06:30;;;;;;;10.40;6.40;;;;;;;-1.98;67.58;97884.46;104823;1271;61059;-26
2022/04/05 01:08:59;;;;;;;6.30;4.20;;;;;;;-2.18;68.11;97878.27;104802;1274;62052;-27
2022/04/05 01:11:29;;;;;;;11.30;5.80;;;;;;;-2.35;68.63;97874.98;105151;1271;74686;-28
2022/04/05 01:14:15;;;;;;;12.70;6.00;;;;;;;-2.48;68.89;97869.14;104720;1273;76070;-30
2022/04/05 01:16:46;;;;;;;6.60;5.00;;;;;;;-2.55;69.42;97859.27;105011;1271;73680;-29
2022/04/05 01:19:15;;;;;;;10.40;6.50;;;;;;;-2.14;68.45;97851.04;104830;1271;61560;-29
2022/04/05 01:21:44;;;;;;;6.70;4.90;;;;;;;-1.72;67.15;97847.98;104985;1271;60986;-29
2022/04/05 01:24:14;;;;;;;6.20;3.90;;;;;;;-1.62;66.04;97846.30;104791;1274;75547;-28
2022/04/05 01:26:49;;;;;;;5.50;4.20;;;;;;;-1.79;66.63;97841.53;104618;1271;76033;-28
2022/04/05 01:29:19;;;;;;;24.20;6.60;;;;;;;-1.96;66.85;97833.66;104712;1271;72947;-28
2022/04/05 01:31:49;;;;;;;7.30;5.40;;;;;;;-2.10;67.14;97829.63;104847;1271;61122;-28
2022/04/05 01:34:20;;;;;;;11.20;6.50;;;;;;;-2.20;67.39;97832.27;104726;1271;62154;-28
2022/04/05 01:36:50;;;;;;;9.80;7.00;;;;;;;-2.32;67.80;97828.80;105023;1271;74613;-28
2022/04/05 01:39:20;;;;;;;9.60;7.20;;;;;;;-2.42;68.00;97819.05;105009;1271;76020;-29
2022/04/05 01:41:56;;;;;;;11.60;7.70;;;;;;;-2.42;68.31;97814.33;104683;1272;74366;-28
2022/04/05 01:44:25;;;;;;;9.60;6.90;;;;;;;-1.84;66.79;97808.92;104797;1274;61259;-28
2022/04/05 01:46:54;;;;;;;8.60;5.10;;;;;;;-1.64;65.76;97802.45;104614;1275;61159;-28
2022/04/05 01:49:24;;;;;;;10.40;5.70;;;;;;;-1.71;65.58;97796.36;104759;1274;75559;-28
2022/04/05 01:51:53;;;;;;;8.30;5.70;;;;;;;-1.82;65.67;97802.52;104899;1271;75827;-29
2022/04/05 01:54:35;;;;;;;7.60;5.60;;;;;;;-2.01;65.92;97795.65;104770;1271;74423;-27
2022/04/05 01:57:05;;;;;;;7.90;5.40;;;;;;;-2.15;66.44;97791.89;104783;1271;61131;-27
2022/04/05 01:59:36;;;;;;;6.60;4.90;;;;;;;-2.26;67.03;97790.77;105054;1271;61972;-27
2022/04/05 02:02:06;;;;;;;9.30;6.00;;;;;;;-2.32;67.13;97788.83;104762;1274;75554;-27
2022/04/05 02:04:35;;;;;;;18.70;7.30;;;;;;;-2.36;66.89;97780.02;104806;1271;76076;-27
2022/04/05 02:07:10;;;;;;;10.60;6.60;;;;;;;-2.37;67.29;97772.09;104913;1271;73385;-27
2022/04/05 02:09:40;;;;;;;8.60;5.50;;;;;;;-1.88;66.21;97768.98;104770;1271;61102;-27
2022/04/05 02:12:11;;;;;;;5.30;4.70;;;;;;;-1.43;64.44;97766.32;104847;1271;61128;-27
2022/04/05 02:15:00;;;;;;;8.20;5.60;;;;;;;-1.37;63.95;97763.29;104897;1271;75523;-27
2022/04/05 02:17:40;;;;;;;10.60;5.40;;;;;;;-1.51;64.00;97758.73;104918;1271;76158;-27
2022/04/05 02:20:09;;;;;;;8.00;4.70;;;;;;;-1.64;64.44;97755.13;104832;1271;74568;-27
2022/04/05 02:22:40;;;;;;;8.40;5.30;;;;;;;-1.80;64.94;97750.51;104605;1271;61145;-27
2022/04/05 02:25:18;;;;;;;12.60;7.00;;;;;;;-1.89;65.02;97749.66;105093;1271;61809;-28
2022/04/05 02:27:48;;;;;;;11.80;7.00;;;;;;;-1.97;65.43;97741.35;104988;1274;74724;-27
2022/04/05 02:30:21;;;;;;;5.60;3.90;;;;;;;-2.02;65.32;97737.51;104922;1271;75016;-27
2022/04/05 02:32:53;;;;;;;6.60;4.60;;;;;;;-2.05;65.68;97732.44;104896;1271;74268;-27
2022/04/05 02:35:23;;;;;;;6.20;4.00;;;;;;;-2.08;65.33;97723.05;104792;1271;61012;-27
2022/04/05 02:37:53;;;;;;;6.10;4.20;;;;;;;-2.08;65.59;97725.08;105097;1271;61023;-27
2022/04/05 02:40:23;;;;;;;11.50;6.90;;;;;;;-2.08;65.16;97719.27;105007;1271;75284;-27
2022/04/05 02:42:55;;;;;;;9.90;6.70;;;;;;;-2.04;65.11;97715.98;104909;1271;74001;-27
2022/04/05 02:45:24;;;;;;;9.60;7.10;;;;;;;-2.04;65.12;97711.09;104792;1271;74379;-27
2022/04/05 02:47:54;;;;;;;8.70;6.20;;;;;;;-1.69;64.23;97704.37;104914;1271;61137;-27
2022/04/05 02:50:24;;;;;;;7.90;5.80;;;;;;;-1.22;62.65;97701.53;104885;1271;61099;-27
2022/04/05 02:52:54;;;;;;;9.20;5.80;;;;;;;-1.11;62.08;97697.34;104917;1271;75599;-27
2022/04/05 02:55:23;;;;;;;9.10;5.80;;;;;;;-1.23;62.18;97695.27;104943;1271;76355;-26
2022/04/05 02:57:54;;;;;;;13.90;8.20;;;;;;;-1.26;62.08;97691.98;104732;1274;74401;-27
2022/04/05 03:00:33;;;;;;;6.10;5.20;;;;;;;-1.39;62.57;97687.30;104793;1271;61350;-27
2022/04/05 03:03:06;;;;;;;10.30;6.40;;;;;;;-1.47;62.84;97682.24;105071;1271;61176;-27
2022/04/05 03:05:39;;;;;;;9.50;4.40;;;;;;;-1.52;63.03;97677.39;104687;1271;72334;-26
2022/04/05 03:08:08;;;;;;;6.80;5.10;;;;;;;-1.54;62.94;97667.80;104798;1274;77006;-27
2022/04/05 03:10:39;;;;;;;6.10;4.40;;;;;;;-1.56;63.25;97668.80;104904;1271;73380;-27
2022/04/05 03:13:12;;;;;;;9.50;5.40;;;;;;;-1.58;63.08;97660.19;104709;1274;61150;-27
2022/04/05 03:15:41;;;;;;;7.50;5.30;;;;;;;-1.57;63.26;97660.69;104721;1271;61774;-27
2022/04/05 03:18:11;;;;;;;12.70;6.20;;;;;;;-1.59;63.58;97653.80;104820;1271;73878;-27
2022/04/05 03:20:41;;;;;;;10.00;5.50;;;;;;;-1.62;63.58;97652.60;104974;1271;75990;-26
2022/04/05 03:23:11;;;;;;;10.30;6.40;;;;;;;-1.59;63.31;97647.00;104897;1271;75089;-27
2022/04/05 03:25:48;;;;;;;9.90;6.40;;;;;;;-1.58;63.23;97644.89;104839;1271;61360;-27
2022/04/05 03:28:20;;;;;;;10.20;7.00;;;;;;;-1.57;63.12;97637.33;104664;1274;61908;-27
2022/04/05 03:30:50;;;;;;;9.40;6.30;;;;;;;-1.54;62.88;97636.47;104937;1271;75374;-26
2022/04/05 03:33:20;;;;;;;11.90;8.00;;;;;;;-1.52;62.79;97628.20;104769;1274;76182;-26
2022/04/05 03:35:50;;;;;;;8.40;5.40;;;;;;;-1.55;63.35;97631.09;104804;1272;73514;-27
2022/04/05 03:38:19;;;;;;;9.50;5.50;;;;;;;-1.51;63.06;97629.51;104829;1272;61220;-27
2022/04/05 03:40:49;;;;;;;10.30;7.30;;;;;;;-1.50;62.92;97632.00;104812;1271;61032;-28
2022/04/05 03:43:18;;;;;;;12.40;7.60;;;;;;;-1.51;63.12;97630.02;104733;1272;74499;-29
2022/04/05 03:45:52;;;;;;;12.90;8.70;;;;;;;-1.49;62.85;97624.30;104849;1271;74764;-28
2022/04/05 03:48:26;;;;;;;10.80;7.40;;;;;;;-1.50;62.82;97622.84;104813;1271;72473;-28
2022/04/05 03:50:56;;;;;;;9.00;6.90;;;;;;;-1.53;62.92;97618.73;104814;1271;61137;-28
2022/04/05 03:53:27;;;;;;;9.80;6.90;;;;;;;-1.51;63.05;97621.70;104919;1271;62020;-29
2022/04/05 03:55:56;;;;;;;13.00;8.90;;;;;;;-1.52;63.04;97615.77;104930;1271;74680;-28
2022/04/05 04:03:04;;;;;;;8.10;5.80;;;;;;;-1.53;63.13;97610.04;104342;1275;74262;-28
2022/04/05 04:05:33;;;;;;;16.40;9.40;;;;;;;-1.51;63.18;97606.03;104828;1272;61001;-28
2022/04/05 04:08:04;;;;;;;6.80;5.50;;;;;;;-1.51;63.04;97606.38;104911;1271;61925;-27
2022/04/05 04:10:54;;;;;;;10.80;7.00;;;;;;;-1.49;63.10;97598.95;104783;1271;75706;-27
2022/04/05 04:13:27;;;;;;;15.30;8.40;;;;;;;-1.47;63.08;97598.99;104909;1271;76091;-27
2022/04/05 04:15:57;;;;;;;5.20;4.40;;;;;;;-1.46;63.15;97599.95;105083;1271;74520;-27
2022/04/05 04:18:30;;;;;;;12.10;4.80;;;;;;;-1.43;63.23;97603.58;104810;1271;61170;-27
2022/04/05 04:21:19;;;;;;;9.60;6.20;;;;;;;-1.43;63.26;97598.27;104934;1271;62093;-27
2022/04/05 04:23:49;;;;;;;11.30;7.20;;;;;;;-1.41;63.06;97600.40;104964;1271;75354;-27
2022/04/05 04:26:18;;;;;;;7.00;5.00;;;;;;;-1.38;63.12;97599.34;104917;1271;75871;-28
2022/04/05 04:28:51;;;;;;;10.60;7.50;;;;;;;-1.37;63.20;97597.77;104829;1274;74559;-27
2022/04/05 04:31:20;;;;;;;6.10;4.50;;;;;;;-1.33;62.97;97599.08;104873;1271;61941;-28
2022/04/05 04:33:49;;;;;;;9.80;7.90;;;;;;;-1.34;63.41;97599.83;104842;1271;62021;-29
2022/04/05 04:36:18;;;;;;;9.20;6.20;;;;;;;-1.29;63.11;97589.02;104996;1271;75723;-26
2022/04/05 04:38:49;;;;;;;9.80;6.70;;;;;;;-1.25;62.88;97593.35;104929;1271;76435;-29
2022/04/05 04:41:21;;;;;;;12.90;8.30;;;;;;;-1.22;62.70;97600.33;104682;1274;74361;-28
2022/04/05 04:43:53;;;;;;;12.00;7.10;;;;;;;-1.18;62.68;97600.31;104644;1271;61093;-26
2022/04/05 04:46:23;;;;;;;7.90;5.40;;;;;;;-1.14;62.45;97603.68;105072;1271;61066;-28
2022/04/05 04:48:52;;;;;;;9.10;5.40;;;;;;;-1.14;62.52;97600.09;104801;1274;75724;-26
2022/04/05 04:51:22;;;;;;;14.30;7.80;;;;;;;-1.07;62.48;97598.46;105035;1271;76065;-26
2022/04/05 04:53:51;;;;;;;7.90;6.20;;;;;;;-1.06;62.20;97594.14;104836;1271;74426;-28
2022/04/05 04:56:27;;;;;;;9.90;7.10;;;;;;;-0.97;61.98;97595.04;104894;1271;61153;-26
2022/04/05 04:58:56;;;;;;;6.30;4.70;;;;;;;-0.97;62.05;97590.44;104809;1274;62056;-27
2022/04/05 05:01:25;;;;;;;8.50;5.70;;;;;;;-0.90;61.69;97592.39;104934;1271;75662;-28
2022/04/05 05:03:55;;;;;;;8.50;5.20;;;;;;;-0.83;61.34;97586.42;104871;1272;75804;-27
2022/04/05 05:06:24;;;;;;;13.00;6.30;;;;;;;-0.78;61.44;97586.91;104803;1271;74400;-27
2022/04/05 05:08:53;;;;;;;10.80;6.20;;;;;;;-0.75;61.06;97585.55;105109;1271;61047;-27
2022/04/05 05:11:22;;;;;;;5.80;4.50;;;;;;;-0.67;60.82;97585.43;105126;1271;62170;-27
2022/04/05 05:13:52;;;;;;;17.30;6.50;;;;;;;-0.62;60.71;97583.09;105132;1272;75681;-27
2022/04/05 05:16:21;;;;;;;10.00;7.30;;;;;;;-0.57;60.73;97584.70;105132;1271;76142;-27
2022/04/05 05:18:51;;;;;;;8.70;5.60;;;;;;;-0.50;60.27;97575.42;104917;1272;74103;-27
2022/04/05 05:21:20;;;;;;;9.80;5.20;;;;;;;-0.45;60.07;97575.31;104793;1274;61590;-27
2022/04/05 05:24:08;;;;;;;8.30;5.60;;;;;;;-0.34;59.88;97573.61;105095;1271;61090;-27
2022/04/05 05:26:39;;;;;;;5.30;4.00;;;;;;;-0.33;59.46;97568.74;105127;1271;75073;-27
2022/04/05 05:29:08;;;;;;;6.50;4.20;;;;;;;-0.25;59.23;97574.11;104929;1272;75944;-27
2022/04/05 05:31:42;;;;;;;10.10;7.00;;;;;;;-0.23;58.92;97570.41;105055;1271;74429;-27
2022/04/05 05:34:12;;;;;;;8.90;6.10;;;;;;;-0.21;58.69;97573.33;105050;1271;61549;-26
2022/04/05 05:36:41;;;;;;;8.80;6.20;;;;;;;-0.18;58.45;97575.71;104863;1271;61683;-27
2022/04/05 05:39:11;;;;;;;8.50;6.10;;;;;;;-0.15;58.46;97573.02;105099;1274;75643;-27
2022/04/05 05:41:41;;;;;;;7.40;3.30;;;;;;;-0.18;58.68;97578.11;104802;1271;76022;-27
2022/04/05 05:44:11;;;;;;;7.80;5.90;;;;;;;-0.12;58.57;97574.69;104814;1274;74444;-27
2022/04/05 05:46:40;;;;;;;8.60;5.40;;;;;;;-0.13;57.76;97568.46;104783;1271;61144;-27
2022/04/05 05:49:09;;;;;;;5.00;4.00;;;;;;;-0.07;58.04;97567.02;104821;1271;61076;-27
2022/04/05 05:51:39;;;;;;;10.60;4.70;;;;;;;-0.01;57.87;97567.66;104849;1274;75362;-27
2022/04/05 05:54:08;;;;;;;13.10;7.10;;;;;;;0.04;57.60;97567.04;104799;1271;76109;-26
2022/04/05 05:56:37;;;;;;;6.00;4.60;;;;;;;0.13;57.34;97568.55;104877;1271;73154;-27
2022/04/05 05:59:07;;;;;;;5.90;4.50;;;;;;;0.20;57.73;97573.26;104835;1271;61137;-27
2022/04/05 06:01:36;;;;;;;5.90;3.90;;;;;;;0.23;57.43;97573.73;104810;1271;61899;-26
2022/04/05 06:04:06;;;;;;;4.90;3.40;;;;;;;0.35;57.34;97575.55;104835;1271;75515;-27
2022/04/05 06:06:36;;;;;;;7.00;4.80;;;;;;;0.42;57.11;97583.27;104780;1271;74792;-26
2022/04/05 06:09:25;;;;;;;8.00;5.30;;;;;;;0.48;56.68;97576.13;104766;1271;74486;-27
2022/04/05 06:11:54;;;;;;;7.70;4.50;;;;;;;0.49;56.87;97571.96;104964;1271;61171;-26
2022/04/05 06:14:26;;;;;;;5.90;4.10;;;;;;;0.53;56.82;97578.49;104866;1271;62129;-27
2022/04/05 06:16:55;;;;;;;6.10;4.20;;;;;;;0.57;57.11;97582.20;104839;1271;74810;-27
2022/04/05 06:19:24;;;;;;;7.90;4.50;;;;;;;0.57;57.40;97578.10;104809;1271;76080;-27
2022/04/05 06:21:53;;;;;;;9.00;4.50;;;;;;;0.67;57.67;97581.52;104903;1271;73765;-27
2022/04/05 06:24:23;;;;;;;15.40;6.00;;;;;;;0.64;57.58;97579.88;104781;1272;61080;-27
2022/04/05 06:26:52;;;;;;;8.50;5.40;;;;;;;0.64;58.04;97571.69;104729;1274;62036;-27
2022/04/05 06:29:21;;;;;;;6.90;5.20;;;;;;;0.63;59.31;97570.67;104931;1271;75548;-27
2022/04/05 06:31:51;;;;;;;12.60;5.30;;;;;;;0.67;60.60;97578.45;104879;1271;76061;-26
2022/04/05 06:34:27;;;;;;;6.90;4.80;;;;;;;0.76;60.79;97571.55;104914;1271;74463;-25
2022/04/05 06:36:58;;;;;;;11.50;5.60;;;;;;;0.69;62.54;97566.05;104739;1274;61151;-28
2022/04/05 06:39:27;;;;;;;11.10;7.70;;;;;;;0.62;64.73;97555.05;104952;1271;62027;-29
2022/04/05 06:41:57;;;;;;;8.30;5.20;;;;;;;0.58;66.14;97546.42;104921;1271;75530;-30
2022/04/05 06:44:27;;;;;;;7.10;4.90;;;;;;;1.09;66.19;97552.20;104849;1271;74928;-28
2022/04/05 06:46:56;;;;;;;9.70;6.70;;;;;;;1.49;65.74;97557.06;104938;1270;72275;-26
2022/04/05 06:49:25;;;;;;;10.70;7.00;;;;;;;1.50;66.34;97558.15;104969;1271;61076;-26
2022/04/05 06:51:54;;;;;;;6.10;4.10;;;;;;;1.26;67.96;97558.26;104785;1271;61790;-26
2022/04/05 06:54:24;;;;;;;7.50;6.00;;;;;;;1.16;68.76;97547.08;104784;1274;73540;-29
2022/04/05 06:56:53;;;;;;;8.70;6.80;;;;;;;0.65;71.47;97553.15;104988;1271;75016;-28
2022/04/05 06:59:22;;;;;;;10.30;7.50;;;;;;;0.52;73.71;97556.20;104950;1271;73488;-28
2022/04/05 07:01:51;;;;;;;4.50;3.60;;;;;;;0.81;73.75;97561.36;104862;1271;61337;-27
2022/04/05 07:04:21;;;;;;;6.10;3.40;;;;;;;0.99;73.59;97557.94;104930;1271;61025;-27
2022/04/05 07:06:51;;;;;;;13.80;9.20;;;;;;;0.79;74.93;97563.20;104806;1274;75549;-26
2022/04/05 07:09:20;;;;;;;9.30;5.80;;;;;;;0.44;76.69;97554.15;105058;1271;75892;-26
2022/04/05 07:11:49;;;;;;;9.50;6.30;;;;;;;0.22;78.16;97558.93;105141;1271;75370;-24
2022/04/05 07:14:19;;;;;;;6.70;5.40;;;;;;;0.51;77.85;97557.95;105122;1271;61012;-24
2022/04/05 07:16:48;;;;;;;9.50;7.00;;;;;;;0.91;76.41;97556.11;105145;1274;61042;-25
2022/04/05 07:19:17;;;;;;;8.10;5.90;;;;;;;0.73;77.10;97551.76;105123;1271;75578;-24
2022/04/05 07:21:47;;;;;;;7.40;5.30;;;;;;;0.59;77.70;97555.39;105097;1274;76017;-24
2022/04/05 07:24:17;;;;;;;10.60;6.20;;;;;;;0.51;78.38;97553.36;105117;1271;74488;-24
2022/04/05 07:26:47;;;;;;;10.20;7.40;;;;;;;0.85;77.80;97543.12;104850;1271;61151;-24
2022/04/05 07:29:17;;;;;;;12.00;7.00;;;;;;;0.93;77.39;97535.62;105184;1271;62118;-24
2022/04/05 07:31:46;;;;;;;12.10;8.20;;;;;;;1.00;76.95;97540.58;105086;1274;75563;-23
2022/04/05 07:34:16;;;;;;;8.50;5.50;;;;;;;0.83;77.86;97543.76;105186;1271;75952;-23
2022/04/05 07:36:45;;;;;;;13.70;9.60;;;;;;;0.68;78.92;97533.98;105121;1271;74464;-24
2022/04/05 07:39:14;;;;;;;8.30;6.30;;;;;;;0.75;79.14;97536.81;105106;1274;61137;-24
2022/04/05 07:41:43;;;;;;;11.00;8.00;;;;;;;1.20;77.67;97538.31;105161;1271;62315;-24
2022/04/05 07:44:12;;;;;;;12.30;8.70;;;;;;;1.24;77.61;97535.27;105150;1274;75800;-24
2022/04/05 07:46:41;;;;;;;10.20;6.20;;;;;;;0.97;78.05;97524.61;104891;1274;76288;-24
2022/04/05 07:49:11;;;;;;;11.80;7.80;;;;;;;0.90;78.07;97527.27;104884;1271;73353;-24
2022/04/05 07:51:39;;;;;;;9.40;7.30;;;;;;;1.04;77.87;97519.55;105009;1271;61335;-24
2022/04/05 07:54:09;;;;;;;11.70;8.20;;;;;;;1.06;77.30;97515.92;104917;1271;61022;-24
2022/04/05 07:56:41;;;;;;;11.00;8.10;;;;;;;0.90;78.17;97520.07;105039;1274;75657;-24
2022/04/05 07:59:10;;;;;;;11.60;8.50;;;;;;;0.74;78.47;97502.02;104886;1271;75167;-24
2022/04/05 08:01:40;;;;;;;14.70;10.90;;;;;;;0.61;79.01;97515.30;104940;1271;74675;-24
2022/04/05 08:04:10;;;;;;;9.70;8.10;;;;;;;0.95;77.32;97510.56;104998;1271;61047;-24
2022/04/05 08:06:46;;;;;;;13.10;8.90;;;;;;;1.02;76.80;97509.56;104932;1271;61917;-24
2022/04/05 08:09:15;;;;;;;8.10;6.30;;;;;;;0.94;76.71;97511.11;105119;1274;74366;-24
2022/04/05 08:11:44;;;;;;;11.90;5.20;;;;;;;0.89;77.05;97503.93;105101;1271;76037;-24
2022/04/05 08:14:13;;;;;;;11.70;7.20;;;;;;;1.18;76.38;97496.21;105073;1271;74297;-24
2022/04/05 08:17:03;;;;;;;9.20;6.40;;;;;;;1.52;74.22;97510.30;104972;1271;61892;-24
2022/04/05 08:19:32;;;;;;;9.00;6.90;;;;;;;1.50;74.11;97507.35;104866;1272;62958;-25
2022/04/05 08:22:02;;;;;;;9.10;6.60;;;;;;;1.30;74.41;97499.63;104915;1271;75101;-25
2022/04/05 08:24:33;;;;;;;10.60;6.70;;;;;;;1.28;75.02;97512.80;104834;1274;76002;-24
2022/04/05 08:27:04;;;;;;;13.30;7.60;;;;;;;1.26;75.36;97495.96;104907;1271;74579;-25
2022/04/05 08:29:39;;;;;;;9.30;6.90;;;;;;;1.63;74.62;97519.96;104930;1271;61141;-25
2022/04/05 08:32:09;;;;;;;7.60;5.80;;;;;;;1.95;72.83;97506.47;105060;1274;62190;-25
2022/04/05 08:34:41;;;;;;;14.60;9.60;;;;;;;1.68;72.60;97506.33;105172;1274;75594;-25
2022/04/05 08:37:11;;;;;;;8.10;6.80;;;;;;;1.65;72.44;97493.66;105121;1271;76038;-25
2022/04/05 08:39:41;;;;;;;10.50;7.10;;;;;;;1.43;73.01;97500.81;104801;1271;73350;-25
2022/04/05 08:42:12;;;;;;;10.00;5.20;;;;;;;1.45;72.87;97496.58;105076;1271;61140;-25
2022/04/05 08:44:44;;;;;;;8.80;5.80;;;;;;;1.69;71.97;97493.73;105066;1272;61068;-25
2022/04/05 08:47:13;;;;;;;7.20;3.30;;;;;;;2.00;70.96;97495.86;104682;1271;75553;-25
2022/04/05 08:49:44;;;;;;;11.80;6.80;;;;;;;2.03;71.39;97491.02;104963;1271;74400;-25
2022/04/05 08:52:13;;;;;;;9.20;6.80;;;;;;;1.88;71.15;97496.04;104976;1271;74434;-25
2022/04/05 08:54:42;;;;;;;15.00;6.90;;;;;;;1.88;71.96;97497.55;104952;1271;61103;-27
2022/04/05 08:57:12;;;;;;;9.20;6.10;;;;;;;2.00;71.04;97487.48;104748;1271;62156;-27
2022/04/05 08:59:41;;;;;;;6.30;4.40;;;;;;;2.41;70.15;97490.16;104915;1271;75759;-28
2022/04/05 09:02:10;;;;;;;9.30;4.80;;;;;;;2.76;68.64;97494.15;105052;1271;76044;-28
2022/04/05 09:04:40;;;;;;;8.90;5.70;;;;;;;2.84;68.23;97489.48;104930;1271;74304;-27
2022/04/05 09:07:23;;;;;;;6.90;4.90;;;;;;;2.82;68.53;97490.45;104699;1274;61052;-27
2022/04/05 09:10:25;;;;;;;10.10;6.90;;;;;;;2.79;68.65;97486.40;104093;1271;1069901;-29
2022/04/05 09:12:55;;;;;;;10.80;4.20;;;;;;;2.71;66.96;97469.89;104734;1271;74863;-27
2022/04/05 09:15:25;;;;;;;9.90;7.20;;;;;;;2.68;67.56;97477.80;104826;1271;75917;-27
2022/04/05 09:17:55;;;;;;;13.00;8.20;;;;;;;2.77;66.37;97473.17;105012;1271;74567;-28
2022/04/05 09:20:24;;;;;;;9.80;5.40;;;;;;;2.77;66.20;97474.53;104695;1271;61201;-28
2022/04/05 09:22:56;;;;;;;10.00;5.80;;;;;;;2.96;65.69;97478.27;104808;1271;61127;-27
2022/04/05 09:25:56;;;;;;;12.20;7.80;;;;;;;3.07;64.26;97471.64;104988;1271;76701;-25
2022/04/05 09:28:26;;;;;;;7.60;5.30;;;;;;;3.20;63.81;97467.27;105034;1271;74168;-27
2022/04/05 09:30:59;;;;;;;;;;;;;;;3.34;63.14;97473.77;104827;1271;72889;-26
2022/04/05 09:33:29;;;;;;;8.90;6.00;;;;;;;3.37;62.27;97459.41;105022;1274;61410;-26
2022/04/05 09:36:03;;;;;;;6.60;4.30;;;;;;;3.44;61.79;97460.97;105114;1272;62085;-26
2022/04/05 09:38:31;;;;;;;;;;;;;;;3.62;61.17;97464.52;104941;1271;74501;-27
2022/04/05 09:41:13;;;;;;;8.30;5.30;;;;;;;3.76;60.82;97446.60;105064;1271;75763;-26
2022/04/05 09:43:55;;;;;;;7.60;5.20;;;;;;;3.87;60.66;97447.28;105033;1271;73122;-26
2022/04/05 09:46:25;;;;;;;4.50;3.20;;;;;;;3.95;59.97;97452.70;105127;1271;61258;-28
2022/04/05 09:49:09;;;;;;;9.80;5.50;;;;;;;4.06;59.77;97455.61;105126;1271;62062;-27
2022/04/05 09:51:43;;;;;;;6.60;4.60;;;;;;;4.14;59.25;97447.89;105114;1271;74387;-26
2022/04/05 09:54:27;;;;;;;8.20;3.50;;;;;;;4.41;59.54;97446.79;105008;1271;74989;-26
2022/04/05 09:57:07;;;;;;;15.30;4.00;;;;;;;4.57;58.32;97442.71;105131;1271;73998;-26
2022/04/05 09:59:46;;;;;;;7.80;4.50;;;;;;;4.81;58.36;97433.55;105005;1271;61131;-27
2022/04/05 10:02:16;;;;;;;5.10;4.30;;;;;;;4.94;58.34;97449.01;105130;1271;63080;-26
2022/04/05 10:05:06;;;;;;;7.20;6.40;;;;;;;4.95;57.27;97434.98;105142;1271;77637;-26
2022/04/05 10:07:36;;;;;;;5.00;3.70;;;;;;;4.79;58.20;97441.13;105153;1271;74969;-27
2022/04/05 10:10:07;;;;;;;6.50;4.70;;;;;;;4.89;58.79;97447.45;105014;1271;74253;-27
2022/04/05 10:12:41;;;;;;;3.80;3.40;;;;;;;4.95;58.69;97437.05;104990;1271;62775;-26
2022/04/05 10:15:11;;;;;;;5.00;3.60;;;;;;;4.96;58.68;97441.06;104801;1271;61115;-26
2022/04/05 10:17:43;;;;;;;8.60;5.60;;;;;;;4.99;58.36;97426.25;104853;1271;75458;-27
2022/04/05 10:20:16;;;;;;;8.30;4.60;;;;;;;4.94;58.86;97428.32;104724;1271;75851;-28
2022/04/05 10:22:56;;;;;;;8.20;5.70;;;;;;;4.88;59.11;97439.86;104947;1271;74461;-26
2022/04/05 10:25:26;;;;;;;6.50;4.60;;;;;;;4.83;59.52;97436.99;105090;1271;61234;-26
2022/04/05 10:28:02;;;;;;;4.60;3.60;;;;;;;4.93;60.28;97455.73;104849;1271;61836;-28
2022/04/05 10:30:37;;;;;;;5.20;4.10;;;;;;;5.01;59.39;97442.89;104826;1271;75600;-26
2022/04/05 10:36:00;;;;;;;8.60;4.70;;;;;;;4.94;59.35;97447.45;101546;1310;616120;-27
2022/04/05 10:38:30;;;;;;;8.70;5.40;;;;;;;4.84;60.57;97449.29;104223;1284;61148;-26
2022/04/05 10:41:14;;;;;;;7.00;5.10;;;;;;;4.87;60.09;97452.13;104308;1284;61187;-25
2022/04/05 10:44:05;;;;;;;8.70;4.60;;;;;;;4.86;60.03;97436.00;104188;1286;74057;-26
2022/04/05 10:46:50;;;;;;;14.80;6.40;;;;;;;4.84;60.29;97446.67;104243;1285;76038;-26
2022/04/05 10:49:47;;;;;;;5.20;4.60;;;;;;;4.87;60.77;97439.91;104056;1283;415073;-26
2022/04/05 10:52:17;;;;;;;5.90;4.50;;;;;;;4.84;61.49;97450.28;103947;1284;61166;-26
2022/04/05 10:54:50;;;;;;;6.50;4.00;;;;;;;4.88;61.82;97452.52;104114;1284;61163;-26
2022/04/05 10:57:32;;;;;;;7.30;5.00;;;;;;;4.88;62.79;97448.75;104768;1271;72926;-29
2022/04/05 11:00:11;;;;;;;8.10;5.40;;;;;;;4.84;63.80;97446.73;105136;1272;76219;-25
2022/04/05 11:02:58;;;;;;;5.70;4.60;;;;;;;4.78;63.99;97432.45;105082;1271;74623;-25
2022/04/05 11:05:32;;;;;;;;;;;;;;;4.73;64.71;97448.73;104957;1272;61202;-26
2022/04/05 11:08:07;;;;;;;5.50;4.60;;;;;;;4.69;65.24;97446.27;105105;1271;61694;-25
2022/04/05 11:10:38;;;;;;;4.00;3.60;;;;;;;4.74;65.67;97456.84;105095;1271;74634;-25
2022/04/05 11:13:08;;;;;;;5.80;4.20;;;;;;;5.25;65.41;97454.60;105136;1274;75795;-25
2022/04/05 11:15:42;;;;;;;6.30;4.60;;;;;;;5.78;63.60;97450.30;105031;1271;74605;-25
2022/04/05 11:18:11;;;;;;;6.10;4.30;;;;;;;5.85;63.29;97460.02;104985;1271;62710;-25
2022/04/05 11:20:41;;;;;;;5.30;4.50;;;;;;;5.80;63.12;97449.10;105113;1274;61068;-26
2022/04/05 11:23:10;;;;;;;8.90;5.60;;;;;;;5.69;63.52;97455.73;105083;1272;74088;-25
2022/04/05 11:25:51;;;;;;;4.70;4.10;;;;;;;5.50;64.50;97451.01;104889;1271;75025;-25
2022/04/05 11:28:21;;;;;;;4.60;3.90;;;;;;;5.47;65.26;97455.92;104975;1271;74539;-25
2022/04/05 11:30:58;;;;;;;6.60;4.90;;;;;;;5.43;64.85;97456.37;104615;1274;61292;-25
2022/04/05 11:33:31;;;;;;;6.80;4.50;;;;;;;5.40;64.77;97457.20;104707;1271;61068;-26
2022/04/05 11:36:00;;;;;;;8.50;4.80;;;;;;;5.38;64.89;97437.68;105079;1271;74634;-25
2022/04/05 11:38:34;;;;;;;7.10;5.40;;;;;;;5.35;65.26;97447.08;104921;1274;76394;-27
2022/04/05 11:41:21;;;;;;;5.70;4.60;;;;;;;5.26;65.07;97442.23;105107;1271;74622;-25
2022/04/05 11:43:56;;;;;;;5.70;3.90;;;;;;;5.20;65.17;97443.34;104710;1274;61074;-25
2022/04/05 11:46:28;;;;;;;6.50;5.30;;;;;;;5.17;65.75;97454.10;104933;1271;61849;-25
2022/04/05 11:48:58;;;;;;;4.80;3.80;;;;;;;5.21;65.90;97447.77;104893;1271;74780;-25
2022/04/05 11:51:37;;;;;;;3.80;3.40;;;;;;;5.66;65.28;97448.74;104895;1274;75882;-25
2022/04/05 11:54:07;;;;;;;5.50;3.60;;;;;;;6.26;63.87;97454.10;105081;1274;74448;-28
2022/04/05 11:56:47;;;;;;;5.50;4.00;;;;;;;6.41;62.67;97448.59;104783;1272;61260;-27